createdAt,value
2023-03-17T00:00:50.383Z,9.46
2023-03-17T00:03:32.380Z,9.48
2023-03-17T00:06:00.669Z,9.49
2023-03-17T00:08:36.443Z,9.50
2023-03-17T00:11:08.063Z,9.47
2023-03-17T00:13:36.651Z,9.47
2023-03-17T00:16:08.029Z,9.48
2023-03-17T00:18:38.212Z,9.44
2023-03-17T00:21:12.783Z,9.42
2023-03-17T00:23:42.469Z,9.42
2023-03-17T00:26:11.236Z,9.43
2023-03-17T00:28:40.914Z,9.44
2023-03-17T00:31:23.963Z,9.41
2023-03-17T00:33:58.857Z,9.40
2023-03-17T00:36:29.829Z,9.34
2023-03-17T00:38:58.783Z,9.28
2023-03-17T00:41:27.685Z,9.28
2023-03-17T00:43:59.098Z,9.22
2023-03-17T00:46:36.222Z,9.23
2023-03-17T00:49:21.546Z,9.20
2023-03-17T00:51:51.451Z,9.21
2023-03-17T00:54:21.897Z,9.15
2023-03-17T00:56:52.297Z,9.16
2023-03-17T00:59:26.441Z,9.17
2023-03-17T01:01:55.738Z,9.12
2023-03-17T01:04:25.815Z,9.13
2023-03-17T01:06:54.360Z,9.18
2023-03-17T01:09:26.693Z,9.18
2023-03-17T01:11:55.956Z,9.19
2023-03-17T01:14:26.757Z,9.24
2023-03-17T01:16:55.647Z,9.21
2023-03-17T01:19:29.595Z,9.18
2023-03-17T01:21:58.333Z,9.17
2023-03-17T01:24:29.106Z,9.18
2023-03-17T01:26:57.644Z,9.21
2023-03-17T01:29:26.006Z,9.21
2023-03-17T01:31:54.229Z,9.23
2023-03-17T01:34:22.824Z,9.15
2023-03-17T01:36:51.289Z,9.15
2023-03-17T01:39:21.362Z,9.19
2023-03-17T01:42:09.396Z,9.18
2023-03-17T01:45:03.739Z,9.14
2023-03-17T01:47:32.433Z,9.17
2023-03-17T01:50:10.253Z,9.22
2023-03-17T01:52:40.064Z,9.23
2023-03-17T01:55:29.441Z,9.21
2023-03-17T01:57:58.000Z,9.23
2023-03-17T02:00:27.017Z,9.23
2023-03-17T02:02:56.937Z,9.26
2023-03-17T02:05:28.605Z,9.25
2023-03-17T02:07:57.310Z,9.28
2023-03-17T02:10:30.180Z,9.31
2023-03-17T02:13:01.633Z,9.30
2023-03-17T02:15:47.405Z,9.33
2023-03-17T02:18:18.097Z,9.32
2023-03-17T02:20:55.737Z,9.32
2023-03-17T02:23:26.882Z,9.30
2023-03-17T02:25:55.825Z,9.30
2023-03-17T02:28:27.580Z,9.29
2023-03-17T02:30:57.820Z,9.31
2023-03-17T02:33:26.125Z,9.34
2023-03-17T02:35:57.849Z,9.33
2023-03-17T02:38:26.448Z,9.30
2023-03-17T02:40:54.950Z,9.19
2023-03-17T02:43:23.215Z,9.19
2023-03-17T02:45:51.437Z,9.16
2023-03-17T02:48:20.554Z,9.12
2023-03-17T02:50:48.625Z,9.10
2023-03-17T02:53:18.651Z,9.17
2023-03-17T02:55:46.940Z,9.21
2023-03-17T02:58:15.321Z,9.28
2023-03-17T03:00:44.001Z,9.32
2023-03-17T03:03:12.460Z,9.35
2023-03-17T03:05:40.921Z,9.34
2023-03-17T03:08:10.605Z,9.37
2023-03-17T03:10:38.715Z,9.37
2023-03-17T03:13:09.664Z,9.36
2023-03-17T03:15:44.228Z,9.29
2023-03-17T03:18:13.611Z,9.14
2023-03-17T03:20:45.026Z,9.16
2023-03-17T03:23:51.473Z,9.15
2023-03-17T03:26:20.193Z,9.16
2023-03-17T03:28:50.060Z,9.13
2023-03-17T03:31:18.302Z,9.12
2023-03-17T03:33:47.004Z,9.09
2023-03-17T03:36:15.288Z,9.13
2023-03-17T03:38:45.744Z,9.09
2023-03-17T03:41:14.506Z,9.03
2023-03-17T03:43:47.788Z,9.00
2023-03-17T03:46:16.396Z,8.93
2023-03-17T03:48:46.496Z,8.91
2023-03-17T03:51:15.377Z,8.91
2023-03-17T03:53:44.206Z,8.89
2023-03-17T03:56:12.608Z,8.86
2023-03-17T03:58:42.242Z,8.85
2023-03-17T04:01:12.753Z,8.79
2023-03-17T04:03:42.987Z,8.80
2023-03-17T04:06:11.839Z,8.79
2023-03-17T04:08:40.161Z,8.75
2023-03-17T04:11:09.268Z,8.80
2023-03-17T04:13:37.403Z,8.81
2023-03-17T04:16:05.805Z,8.82
2023-03-17T04:18:33.898Z,8.78
2023-03-17T04:21:01.996Z,8.76
2023-03-17T04:23:31.792Z,8.77
2023-03-17T04:26:00.336Z,8.74
2023-03-17T04:28:32.723Z,8.75
2023-03-17T04:31:00.879Z,8.78
2023-03-17T04:33:29.135Z,8.79
2023-03-17T04:35:57.353Z,8.78
2023-03-17T04:38:29.776Z,8.76
2023-03-17T04:41:01.154Z,8.77
2023-03-17T04:43:31.842Z,8.71
2023-03-17T04:46:06.325Z,8.73
2023-03-17T04:48:35.602Z,8.70
2023-03-17T04:51:03.554Z,8.76
2023-03-17T04:53:31.912Z,8.70
2023-03-17T04:56:00.436Z,8.73
2023-03-17T04:58:31.871Z,8.76
2023-03-17T05:01:00.849Z,8.75
2023-03-17T05:03:30.668Z,8.71
2023-03-17T05:06:02.327Z,8.69
2023-03-17T05:08:37.100Z,8.66
2023-03-17T05:11:05.601Z,8.55
2023-03-17T05:13:36.272Z,8.50
2023-03-17T05:16:05.147Z,8.56
2023-03-17T05:18:37.530Z,8.53
2023-03-17T05:21:08.093Z,8.49
2023-03-17T05:23:36.436Z,8.48
2023-03-17T05:26:06.807Z,8.41
2023-03-17T05:28:35.507Z,8.37
2023-03-17T05:31:04.163Z,8.37
2023-03-17T05:33:32.410Z,8.39
2023-03-17T05:36:04.028Z,8.39
2023-03-17T05:38:34.220Z,8.45
2023-03-17T05:41:07.977Z,8.55
2023-03-17T05:43:37.684Z,8.61
2023-03-17T05:46:10.993Z,8.69
2023-03-17T05:48:42.486Z,8.67
2023-03-17T05:51:10.927Z,8.63
2023-03-17T05:53:42.749Z,8.58
2023-03-17T05:56:11.148Z,8.65
2023-03-17T05:58:40.307Z,8.63
2023-03-17T06:01:09.074Z,8.71
2023-03-17T06:03:39.074Z,8.74
2023-03-17T06:06:07.285Z,8.76
2023-03-17T06:08:37.248Z,8.86
2023-03-17T06:11:08.822Z,8.73
2023-03-17T06:13:38.658Z,8.82
2023-03-17T06:16:10.054Z,8.90
2023-03-17T06:18:40.197Z,8.90
2023-03-17T06:21:08.486Z,8.87
2023-03-17T06:23:36.992Z,8.75
2023-03-17T06:26:05.669Z,8.76
2023-03-17T06:28:36.220Z,8.91
2023-03-17T06:31:07.151Z,8.96
2023-03-17T06:33:35.894Z,8.96
2023-03-17T06:36:04.786Z,8.98
2023-03-17T06:38:34.874Z,8.98
2023-03-17T06:41:03.720Z,8.81
2023-03-17T06:43:33.060Z,8.77
2023-03-17T06:46:05.116Z,8.72
2023-03-17T06:48:35.621Z,8.63
2023-03-17T06:51:04.626Z,8.68
2023-03-17T06:53:33.095Z,8.58
2023-03-17T06:56:01.376Z,8.66
2023-03-17T06:58:32.723Z,8.71
2023-03-17T07:01:04.542Z,8.77
2023-03-17T07:03:33.086Z,8.75
2023-03-17T07:06:04.285Z,8.88
2023-03-17T07:08:32.351Z,8.81
2023-03-17T07:11:06.395Z,8.80
2023-03-17T07:13:37.586Z,8.84
2023-03-17T07:16:06.139Z,9.02
2023-03-17T07:18:39.875Z,9.14
2023-03-17T07:21:08.373Z,9.30
2023-03-17T07:23:36.786Z,9.37
2023-03-17T07:26:05.136Z,9.44
2023-03-17T07:28:34.708Z,9.36
2023-03-17T07:31:14.566Z,9.31
2023-03-17T07:33:42.910Z,9.24
2023-03-17T07:36:11.318Z,9.24
2023-03-17T07:38:43.610Z,9.28
2023-03-17T07:41:11.960Z,9.32
2023-03-17T07:43:42.123Z,9.36
2023-03-17T07:46:10.036Z,9.40
2023-03-17T07:48:42.640Z,9.41
2023-03-17T07:51:16.474Z,9.37
2023-03-17T07:53:45.527Z,9.38
2023-03-17T07:56:14.560Z,9.46
2023-03-17T07:58:42.811Z,9.54
2023-03-17T08:01:10.847Z,9.56
2023-03-17T08:03:41.382Z,9.68
2023-03-17T08:06:09.682Z,9.75
2023-03-17T08:08:37.998Z,9.80
2023-03-17T08:11:06.328Z,9.81
2023-03-17T08:13:35.104Z,9.77
2023-03-17T08:16:07.587Z,9.78
2023-03-17T08:18:36.851Z,9.83
2023-03-17T08:21:08.376Z,9.82
2023-03-17T08:23:38.534Z,9.91
2023-03-17T08:26:06.886Z,9.83
2023-03-17T08:28:40.093Z,9.98
2023-03-17T08:31:13.884Z,9.90
2023-03-17T08:33:42.743Z,9.83
2023-03-17T08:36:13.842Z,9.70
2023-03-17T08:38:43.129Z,9.75
2023-03-17T08:41:23.159Z,10.05
2023-03-17T08:43:52.117Z,10.15
2023-03-17T08:46:26.601Z,10.08
2023-03-17T08:48:59.335Z,10.00
2023-03-17T08:51:31.289Z,10.16
2023-03-17T08:54:01.363Z,10.21
2023-03-17T08:56:33.057Z,10.16
2023-03-17T08:59:01.404Z,10.09
2023-03-17T09:01:29.981Z,10.09
2023-03-17T09:03:58.836Z,10.06
2023-03-17T09:06:27.313Z,10.11
2023-03-17T09:08:58.077Z,10.16
2023-03-17T09:11:28.561Z,10.27
2023-03-17T09:14:00.543Z,10.29
2023-03-17T09:16:34.344Z,10.26
2023-03-17T09:19:04.493Z,10.28
2023-03-17T09:21:32.928Z,10.31
2023-03-17T09:24:02.662Z,10.23
2023-03-17T09:26:32.347Z,10.46
2023-03-17T09:29:02.526Z,10.71
2023-03-17T09:31:32.926Z,10.89
2023-03-17T09:34:08.512Z,10.61
2023-03-17T09:36:39.877Z,10.71
2023-03-17T09:39:09.215Z,10.72
2023-03-17T09:42:02.707Z,10.70
2023-03-17T09:44:56.241Z,10.69
2023-03-17T09:47:32.976Z,10.63
2023-03-17T09:50:06.120Z,10.53
2023-03-17T09:52:37.125Z,10.59
2023-03-17T09:55:08.903Z,10.54
2023-03-17T09:57:40.890Z,10.60
2023-03-17T10:00:14.887Z,10.68
2023-03-17T10:02:44.152Z,10.57
2023-03-17T10:05:28.644Z,10.63
2023-03-17T10:08:45.046Z,10.35
2023-03-17T10:11:26.762Z,10.28
2023-03-17T10:14:11.555Z,10.37
2023-03-17T10:16:49.136Z,10.50
2023-03-17T10:19:22.303Z,10.50
2023-03-17T10:22:46.560Z,10.78
2023-03-17T10:25:29.795Z,11.05
2023-03-17T10:28:03.884Z,11.23
2023-03-17T10:30:36.676Z,11.35
2023-03-17T10:33:09.414Z,11.20
2023-03-17T10:35:41.636Z,10.87
2023-03-17T10:38:21.805Z,10.71
2023-03-17T10:41:08.149Z,10.59
2023-03-17T10:43:44.991Z,10.32
2023-03-17T10:46:26.871Z,10.45
2023-03-17T10:48:58.902Z,10.37
2023-03-17T10:51:35.937Z,10.24
2023-03-17T10:54:10.472Z,9.91
2023-03-17T10:56:42.728Z,9.94
2023-03-17T10:59:22.267Z,10.12
2023-03-17T11:01:56.717Z,10.16
2023-03-17T11:04:32.778Z,10.42
2023-03-17T11:07:23.384Z,10.49
2023-03-17T11:09:52.889Z,10.39
2023-03-17T11:12:27.686Z,10.42
2023-03-17T11:15:08.157Z,10.18
2023-03-17T11:17:59.588Z,10.31
2023-03-17T11:20:45.894Z,10.23
2023-03-17T11:23:44.198Z,10.16
2023-03-17T11:26:27.173Z,10.06
2023-03-17T11:29:25.039Z,10.28
2023-03-17T11:32:11.993Z,10.59
2023-03-17T11:34:48.822Z,10.83
2023-03-17T11:37:26.703Z,10.96
2023-03-17T11:40:22.758Z,11.02
2023-03-17T11:43:29.397Z,11.25
2023-03-17T11:46:08.145Z,11.48
2023-03-17T11:48:58.169Z,11.72
2023-03-17T11:51:30.665Z,11.61
2023-03-17T11:54:25.277Z,11.34
2023-03-17T11:57:02.205Z,11.12
2023-03-17T11:59:42.379Z,11.13
2023-03-17T12:02:23.732Z,10.95
2023-03-17T12:04:56.141Z,10.70
2023-03-17T12:07:29.203Z,10.49
2023-03-17T12:10:52.448Z,10.55
2023-03-17T12:13:37.530Z,10.66
2023-03-17T12:16:12.206Z,10.88
2023-03-17T12:19:08.737Z,10.79
2023-03-17T12:21:46.054Z,11.06
2023-03-17T12:24:21.999Z,10.86
2023-03-17T12:26:57.770Z,10.70
2023-03-17T12:29:41.387Z,10.52
2023-03-17T12:32:18.622Z,10.33
2023-03-17T12:34:57.480Z,10.32
2023-03-17T12:37:30.615Z,10.44
2023-03-17T12:40:05.621Z,10.30
2023-03-17T12:42:52.708Z,10.51
2023-03-17T12:45:41.724Z,10.57
2023-03-17T12:48:34.428Z,10.64
2023-03-17T12:51:40.299Z,10.59
2023-03-17T12:54:30.102Z,10.47
2023-03-17T12:57:24.500Z,10.49
2023-03-17T13:00:01.487Z,10.65
2023-03-17T13:02:30.021Z,10.55
2023-03-17T13:05:01.197Z,10.14
2023-03-17T13:07:38.412Z,9.93
2023-03-17T13:10:14.084Z,9.93
2023-03-17T13:12:44.919Z,9.73
2023-03-17T13:15:28.946Z,9.76
2023-03-17T13:18:15.791Z,9.69
2023-03-17T13:20:57.349Z,9.58
2023-03-17T13:23:38.590Z,9.54
2023-03-17T13:26:07.040Z,9.58
2023-03-17T13:28:36.147Z,9.63
2023-03-17T13:31:15.028Z,9.75
2023-03-17T13:33:54.334Z,9.67
2023-03-17T13:36:47.319Z,9.90
2023-03-17T13:39:40.645Z,9.65
2023-03-17T13:42:24.129Z,9.50
2023-03-17T13:45:16.595Z,9.44
2023-03-17T13:47:46.334Z,9.38
2023-03-17T13:50:24.511Z,9.46
2023-03-17T13:53:05.694Z,9.51
2023-03-17T13:55:44.660Z,9.36
2023-03-17T13:58:32.672Z,9.17
2023-03-17T14:01:04.255Z,9.23
2023-03-17T14:03:41.673Z,9.16
2023-03-17T14:06:12.666Z,8.83
2023-03-17T14:08:51.730Z,8.84
2023-03-17T14:11:41.604Z,8.89
2023-03-17T14:14:45.183Z,8.90
2023-03-17T14:17:19.973Z,8.81
2023-03-17T14:20:08.501Z,8.71
2023-03-17T14:22:47.636Z,8.72
2023-03-17T14:25:24.809Z,8.63
2023-03-17T14:27:57.447Z,8.55
2023-03-17T14:30:31.061Z,8.57
2023-03-17T14:33:25.250Z,8.46
2023-03-17T14:35:54.798Z,8.40
2023-03-17T14:38:33.727Z,8.26
2023-03-17T14:41:07.535Z,8.28
2023-03-17T14:43:37.044Z,8.32
2023-03-17T14:46:08.055Z,8.25
2023-03-17T14:48:38.209Z,8.23
2023-03-17T14:51:39.513Z,8.23
2023-03-17T14:54:21.467Z,8.31
2023-03-17T14:57:05.490Z,8.27
2023-03-17T14:59:41.031Z,8.18
2023-03-17T15:02:38.272Z,8.19
2023-03-17T15:05:29.717Z,8.10
2023-03-17T15:07:58.173Z,8.04
2023-03-17T15:10:31.503Z,7.96
2023-03-17T15:13:02.342Z,7.91
2023-03-17T15:15:33.298Z,7.81
2023-03-17T15:18:06.196Z,7.89
2023-03-17T15:20:35.946Z,7.87
2023-03-17T15:23:14.072Z,7.79
2023-03-17T15:25:44.673Z,7.79
2023-03-17T15:28:21.141Z,7.69
2023-03-17T15:30:52.802Z,7.62
2023-03-17T15:33:22.945Z,7.72
2023-03-17T15:35:51.452Z,7.78
2023-03-17T15:38:20.071Z,7.71
2023-03-17T15:40:48.190Z,7.68
2023-03-17T15:43:18.842Z,7.69
2023-03-17T15:45:52.521Z,7.69
2023-03-17T15:48:35.377Z,7.70
2023-03-17T15:51:04.826Z,7.65
2023-03-17T15:53:32.855Z,7.53
2023-03-17T15:56:01.981Z,7.60
2023-03-17T15:58:30.345Z,7.58
2023-03-17T16:01:00.376Z,7.56
2023-03-17T16:03:37.369Z,7.38
2023-03-17T16:06:11.383Z,7.41
2023-03-17T16:08:40.947Z,7.56
2023-03-17T16:11:28.681Z,7.58
2023-03-17T16:14:03.159Z,7.62
2023-03-17T16:16:37.583Z,7.48
2023-03-17T16:19:06.886Z,7.59
2023-03-17T16:21:36.406Z,7.60
2023-03-17T16:24:04.882Z,7.63
2023-03-17T16:26:36.837Z,7.57
2023-03-17T16:29:15.037Z,7.58
2023-03-17T16:31:46.154Z,7.60
2023-03-17T16:34:17.084Z,7.45
2023-03-17T16:36:46.290Z,7.58
2023-03-17T16:39:20.123Z,7.48
2023-03-17T16:41:53.984Z,7.52
2023-03-17T16:44:24.212Z,7.56
2023-03-17T16:46:54.380Z,7.50
2023-03-17T16:49:23.261Z,7.64
2023-03-17T16:51:53.593Z,7.65
2023-03-17T16:54:23.793Z,7.68
2023-03-17T16:56:52.341Z,7.67
2023-03-17T16:59:24.811Z,7.61
2023-03-17T17:01:55.217Z,7.64
2023-03-17T17:04:24.689Z,7.65
2023-03-17T17:06:53.044Z,7.74
2023-03-17T17:09:21.007Z,7.65
2023-03-17T17:11:49.076Z,7.69
2023-03-17T17:14:17.588Z,7.69
2023-03-17T17:16:47.280Z,7.71
2023-03-17T17:19:17.393Z,7.77
2023-03-17T17:21:46.091Z,7.67
2023-03-17T17:24:15.923Z,7.63
2023-03-17T17:26:45.104Z,7.58
2023-03-17T17:29:13.296Z,7.58
2023-03-17T17:31:44.233Z,7.59
2023-03-17T17:34:13.616Z,7.63
2023-03-17T17:36:44.967Z,7.59
2023-03-17T17:39:14.843Z,7.54
2023-03-17T17:41:44.622Z,7.52
2023-03-17T17:44:14.198Z,7.51
2023-03-17T17:46:46.030Z,7.55
2023-03-17T17:49:14.820Z,7.50
2023-03-17T17:51:48.790Z,7.54
2023-03-17T17:54:16.960Z,7.49
2023-03-17T17:56:47.106Z,7.55
2023-03-17T17:59:15.741Z,7.53
2023-03-17T18:01:44.047Z,7.54
2023-03-17T18:04:13.206Z,7.53
2023-03-17T18:06:43.527Z,7.58
2023-03-17T18:09:11.834Z,7.59
2023-03-17T18:11:41.846Z,7.47
2023-03-17T18:14:14.008Z,7.47
2023-03-17T18:16:42.602Z,7.51
2023-03-17T18:19:13.615Z,7.46
2023-03-17T18:21:48.592Z,7.40
2023-03-17T18:24:21.552Z,7.44
2023-03-17T18:26:49.769Z,7.51
2023-03-17T18:29:18.001Z,7.53
2023-03-17T18:31:49.363Z,7.49
2023-03-17T18:34:24.247Z,7.46
2023-03-17T18:36:53.213Z,7.46
2023-03-17T18:39:21.709Z,7.58
2023-03-17T18:41:54.430Z,7.56
2023-03-17T18:44:25.397Z,7.42
2023-03-17T18:46:53.547Z,7.49
2023-03-17T18:49:28.763Z,7.45
2023-03-17T18:51:57.842Z,7.36
2023-03-17T18:54:28.141Z,7.32
2023-03-17T18:56:59.831Z,7.29
2023-03-17T18:59:28.468Z,7.38
2023-03-17T19:02:02.325Z,7.24
2023-03-17T19:04:31.017Z,7.31
2023-03-17T19:06:59.380Z,7.20
2023-03-17T19:09:28.221Z,7.29
2023-03-17T19:11:57.995Z,7.38
2023-03-17T19:14:26.434Z,7.34
2023-03-17T19:16:54.982Z,7.36
2023-03-17T19:19:27.874Z,7.33
2023-03-17T19:21:56.074Z,7.21
2023-03-17T19:24:25.462Z,7.18
2023-03-17T19:26:54.193Z,7.28
2023-03-17T19:29:22.954Z,7.31
2023-03-17T19:31:51.291Z,7.24
2023-03-17T19:34:19.586Z,7.29
2023-03-17T19:36:47.760Z,7.27
2023-03-17T19:39:17.357Z,7.24
2023-03-17T19:41:47.744Z,7.30
2023-03-17T19:44:22.620Z,7.24
2023-03-17T19:46:50.911Z,7.20
2023-03-17T19:49:20.756Z,7.22
2023-03-17T19:51:50.041Z,7.16
2023-03-17T19:54:23.536Z,7.17
2023-03-17T19:56:52.182Z,7.25
2023-03-17T19:59:23.341Z,7.23
2023-03-17T20:01:54.013Z,7.14
2023-03-17T20:04:23.497Z,7.23
2023-03-17T20:06:56.055Z,7.15
2023-03-17T20:09:26.662Z,7.08
2023-03-17T20:11:56.851Z,7.15
2023-03-17T20:14:26.069Z,7.08
2023-03-17T20:16:54.375Z,7.04
2023-03-17T20:19:22.880Z,7.16
2023-03-17T20:21:53.828Z,7.02
2023-03-17T20:24:22.743Z,6.84
2023-03-17T20:26:52.028Z,6.92
2023-03-17T20:29:24.632Z,6.81
2023-03-17T20:31:52.856Z,6.81
2023-03-17T20:34:22.271Z,6.83
2023-03-17T20:36:51.811Z,6.74
2023-03-17T20:39:22.692Z,6.77
2023-03-17T20:41:52.106Z,6.74
2023-03-17T20:44:21.860Z,6.70
2023-03-17T20:46:58.978Z,6.56
2023-03-17T20:49:30.440Z,6.52
2023-03-17T20:52:00.093Z,6.51
2023-03-17T20:54:29.195Z,6.55
2023-03-17T20:56:57.569Z,6.54
2023-03-17T20:59:26.464Z,6.58
2023-03-17T21:01:55.080Z,6.49
2023-03-17T21:04:24.564Z,6.53
2023-03-17T21:06:53.707Z,6.49
2023-03-17T21:09:21.900Z,6.43
2023-03-17T21:11:50.133Z,6.40
2023-03-17T21:14:21.806Z,6.34
2023-03-17T21:16:50.820Z,6.40
2023-03-17T21:19:20.021Z,6.41
2023-03-17T21:21:48.874Z,6.34
2023-03-17T21:24:34.717Z,6.29
2023-03-17T21:27:05.908Z,6.36
2023-03-17T21:29:35.350Z,6.30
2023-03-17T21:32:07.641Z,6.29
2023-03-17T21:34:37.059Z,6.25
2023-03-17T21:37:05.592Z,6.31
2023-03-17T21:39:36.577Z,6.30
2023-03-17T21:42:08.453Z,6.34
2023-03-17T21:44:36.853Z,6.29
2023-03-17T21:47:05.144Z,6.17
2023-03-17T21:49:33.784Z,6.15
2023-03-17T21:52:02.615Z,6.23
2023-03-17T21:54:31.008Z,6.24
2023-03-17T21:57:04.933Z,6.27
2023-03-17T21:59:34.729Z,6.20
2023-03-17T22:02:03.945Z,6.23
2023-03-17T22:04:33.142Z,6.25
2023-03-17T22:07:03.532Z,6.32
2023-03-17T22:09:31.947Z,6.30
2023-03-17T22:12:01.087Z,6.28
2023-03-17T22:14:30.830Z,6.19
2023-03-17T22:17:00.943Z,6.19
2023-03-17T22:19:29.372Z,6.24
2023-03-17T22:21:59.909Z,6.29
2023-03-17T22:24:28.644Z,6.30
2023-03-17T22:26:59.674Z,6.23
2023-03-17T22:29:31.759Z,6.17
2023-03-17T22:32:00.095Z,6.15
2023-03-17T22:34:28.781Z,6.11
2023-03-17T22:36:57.379Z,6.19
2023-03-17T22:39:26.102Z,6.16
2023-03-17T22:42:18.971Z,6.13
2023-03-17T22:44:47.254Z,6.05
2023-03-17T22:47:19.360Z,6.16
2023-03-17T22:49:48.908Z,6.11
2023-03-17T22:52:17.430Z,6.11
2023-03-17T22:55:15.236Z,6.21
2023-03-17T22:57:44.341Z,6.24
2023-03-17T23:00:18.219Z,6.13
2023-03-17T23:02:46.777Z,6.09
2023-03-17T23:05:15.329Z,5.98
2023-03-17T23:07:51.866Z,5.96
2023-03-17T23:10:23.601Z,5.92
2023-03-17T23:12:56.814Z,5.93
2023-03-17T23:15:28.667Z,5.81
2023-03-17T23:17:57.120Z,5.93
2023-03-17T23:20:25.862Z,5.87
2023-03-17T23:22:54.267Z,5.83
2023-03-17T23:25:23.215Z,5.91
2023-03-17T23:27:52.147Z,5.94
2023-03-17T23:30:21.562Z,5.85
2023-03-17T23:32:50.648Z,5.86
2023-03-17T23:35:20.032Z,5.73
2023-03-17T23:37:48.687Z,5.73
2023-03-17T23:40:17.575Z,5.74
2023-03-17T23:42:48.306Z,5.74
2023-03-17T23:45:19.157Z,5.67
2023-03-17T23:47:48.236Z,5.80
2023-03-17T23:50:21.850Z,5.62
2023-03-17T23:52:52.401Z,5.69
2023-03-17T23:55:20.548Z,5.63
2023-03-17T23:57:49.688Z,5.60
